createdAt,value
2023-03-27T00:01:17.729Z,1.75
2023-03-27T00:06:21.916Z,2.00
2023-03-27T00:11:26.575Z,0.75
2023-03-27T00:16:30.483Z,1.00
2023-03-27T00:21:34.168Z,0.50
2023-03-27T00:26:40.463Z,0.75
2023-03-27T00:31:43.398Z,1.00
2023-03-27T00:36:50.982Z,1.00
2023-03-27T00:41:55.488Z,1.00
2023-03-27T00:46:58.653Z,1.25
2023-03-27T00:52:04.116Z,1.00
2023-03-27T00:57:13.695Z,0.00
2023-03-27T01:02:18.234Z,0.50
2023-03-27T01:07:22.618Z,1.50
2023-03-27T01:12:38.819Z,1.00
2023-03-27T01:17:58.664Z,1.00
2023-03-27T01:23:59.118Z,1.00
2023-03-27T01:29:11.487Z,0.00
2023-03-27T01:34:42.651Z,1.25
2023-03-27T01:39:57.701Z,2.00
2023-03-27T01:45:06.811Z,0.00
2023-03-27T01:50:18.280Z,0.25
2023-03-27T01:55:27.641Z,0.75
2023-03-27T02:00:51.128Z,1.00
2023-03-27T02:06:00.148Z,0.00
2023-03-27T02:11:05.570Z,1.25
2023-03-27T02:16:12.389Z,0.00
2023-03-27T02:21:15.623Z,1.00
2023-03-27T02:26:21.348Z,0.75
2023-03-27T02:31:38.401Z,1.00
2023-03-27T02:36:48.326Z,0.00
2023-03-27T02:41:58.119Z,0.00
2023-03-27T02:47:19.272Z,0.00
2023-03-27T02:52:34.728Z,1.00
2023-03-27T02:57:40.011Z,0.00
2023-03-27T03:03:08.119Z,1.00
2023-03-27T03:08:11.715Z,0.25
2023-03-27T03:13:16.050Z,0.00
2023-03-27T03:18:20.046Z,0.00
2023-03-27T03:23:24.108Z,0.00
2023-03-27T03:28:29.126Z,0.50
2023-03-27T03:33:32.934Z,0.00
2023-03-27T03:38:38.108Z,1.00
2023-03-27T03:43:47.035Z,0.00
2023-03-27T03:48:49.910Z,1.50
2023-03-27T03:53:52.708Z,0.00
2023-03-27T03:58:57.232Z,1.00
2023-03-27T04:03:59.991Z,1.00
2023-03-27T04:09:08.806Z,0.00
2023-03-27T04:14:29.871Z,0.00
2023-03-27T04:19:35.844Z,0.75
2023-03-27T04:24:44.677Z,0.00
2023-03-27T04:29:51.031Z,0.00
2023-03-27T04:35:25.833Z,0.00
2023-03-27T04:40:38.235Z,1.00
2023-03-27T04:45:44.678Z,0.00
2023-03-27T04:50:49.765Z,0.00
2023-03-27T04:56:06.135Z,0.00
2023-03-27T05:01:14.357Z,0.00
2023-03-27T05:06:23.412Z,0.00
2023-03-27T05:11:26.958Z,0.25
2023-03-27T05:16:31.389Z,0.00
2023-03-27T05:21:37.589Z,1.00
2023-03-27T05:26:44.177Z,0.50
2023-03-27T05:31:49.082Z,0.00
2023-03-27T05:37:16.427Z,0.00
2023-03-27T05:42:43.379Z,0.50
2023-03-27T05:47:49.643Z,0.00
2023-03-27T05:52:56.034Z,0.00
2023-03-27T05:58:05.998Z,0.00
2023-03-27T06:03:12.491Z,0.00
2023-03-27T06:08:47.617Z,0.00
2023-03-27T06:13:50.866Z,1.00
2023-03-27T06:18:59.494Z,0.50
2023-03-27T06:24:04.036Z,0.75
2023-03-27T06:29:08.057Z,0.00
2023-03-27T06:34:15.186Z,0.00
2023-03-27T06:39:24.673Z,0.00
2023-03-27T06:44:28.806Z,0.00
2023-03-27T06:49:47.636Z,1.25
2023-03-27T06:54:55.188Z,1.00
2023-03-27T07:00:00.879Z,1.00
2023-03-27T07:05:26.433Z,0.00
2023-03-27T07:10:29.561Z,0.00
2023-03-27T07:15:32.808Z,1.00
2023-03-27T07:20:37.064Z,0.75
2023-03-27T07:25:46.320Z,0.00
2023-03-27T07:30:58.676Z,0.00
2023-03-27T07:36:07.681Z,0.00
2023-03-27T07:41:20.997Z,1.00
2023-03-27T07:46:36.048Z,0.00
2023-03-27T07:51:41.172Z,0.00
2023-03-27T07:56:44.567Z,0.00
2023-03-27T08:02:07.500Z,0.00
2023-03-27T08:07:15.450Z,0.00
2023-03-27T08:12:19.637Z,1.00
2023-03-27T08:17:33.826Z,0.00
2023-03-27T08:22:39.456Z,0.00
2023-03-27T08:28:03.284Z,0.00
2023-03-27T08:33:09.766Z,0.00
2023-03-27T08:38:25.740Z,0.75
2023-03-27T08:44:04.071Z,0.00
2023-03-27T08:49:12.570Z,0.00
2023-03-27T08:54:21.443Z,0.00
2023-03-27T08:59:27.983Z,0.25
2023-03-27T09:04:41.092Z,0.00
2023-03-27T09:09:55.874Z,1.75
2023-03-27T09:15:05.742Z,1.00
2023-03-27T09:20:20.330Z,3.00
2023-03-27T09:25:31.467Z,2.00
2023-03-27T09:30:36.441Z,2.00
2023-03-27T09:35:59.403Z,2.25
2023-03-27T09:41:08.569Z,2.00
2023-03-27T09:46:19.337Z,3.00
2023-03-27T09:51:42.011Z,2.50
2023-03-27T09:57:12.437Z,2.00
2023-03-27T10:02:19.479Z,2.00
2023-03-27T10:07:25.798Z,55.00
2023-03-27T10:12:55.775Z,46.80
2023-03-27T10:18:21.164Z,82.00
2023-03-27T10:23:27.508Z,124.40
2023-03-27T10:28:38.838Z,150.00
2023-03-27T10:33:45.429Z,207.40
2023-03-27T10:39:15.538Z,241.67
2023-03-27T10:44:54.468Z,252.67
2023-03-27T10:50:09.279Z,252.33
2023-03-27T10:55:31.093Z,255.25
2023-03-27T11:00:39.796Z,284.50
2023-03-27T11:05:48.310Z,284.33
2023-03-27T11:11:09.640Z,293.67
2023-03-27T11:16:24.761Z,295.00
2023-03-27T11:21:51.161Z,288.33
2023-03-27T11:27:06.030Z,286.67
2023-03-27T11:32:21.389Z,264.33
2023-03-27T11:37:40.638Z,239.33
2023-03-27T11:42:46.520Z,226.00
2023-03-27T11:48:25.621Z,207.40
2023-03-27T11:53:48.214Z,219.67
2023-03-27T11:59:10.971Z,204.60
2023-03-27T12:04:41.556Z,43.20
2023-03-27T12:10:11.990Z,32.80
2023-03-27T12:15:55.996Z,169.00
2023-03-27T12:21:10.601Z,144.00
2023-03-27T12:26:35.015Z,157.20
2023-03-27T12:32:05.967Z,182.60
2023-03-27T12:37:14.233Z,280.75
2023-03-27T12:42:44.052Z,284.50
2023-03-27T12:48:17.806Z,378.25
2023-03-27T12:53:54.877Z,382.00
2023-03-27T12:58:59.816Z,419.00
2023-03-27T13:04:26.358Z,349.75
2023-03-27T13:09:54.478Z,308.25
2023-03-27T13:15:23.677Z,296.50
2023-03-27T13:20:41.111Z,279.75
2023-03-27T13:26:02.915Z,264.67
2023-03-27T13:31:14.672Z,250.00
2023-03-27T13:36:48.875Z,223.67
2023-03-27T13:42:08.089Z,228.33
2023-03-27T13:48:02.817Z,223.00
2023-03-27T13:53:33.850Z,210.33
2023-03-27T13:59:27.805Z,200.20
2023-03-27T14:05:05.682Z,186.60
2023-03-27T14:10:25.303Z,186.80
2023-03-27T14:16:04.888Z,178.00
2023-03-27T14:21:24.466Z,170.60
2023-03-27T14:26:37.878Z,161.60
2023-03-27T14:31:44.188Z,49.60
2023-03-27T14:36:56.303Z,82.20
2023-03-27T14:42:05.578Z,78.20
2023-03-27T14:47:17.715Z,87.00
2023-03-27T14:52:26.819Z,92.40
2023-03-27T14:57:50.419Z,88.20
2023-03-27T15:02:57.097Z,86.20
2023-03-27T15:08:01.242Z,77.80
2023-03-27T15:13:36.728Z,76.40
2023-03-27T15:18:56.202Z,83.40
2023-03-27T15:24:05.436Z,83.00
2023-03-27T15:29:17.938Z,48.60
2023-03-27T15:34:34.011Z,75.60
2023-03-27T15:39:39.345Z,81.20
2023-03-27T15:44:43.834Z,68.40
2023-03-27T15:49:48.070Z,73.80
2023-03-27T15:54:55.834Z,72.40
2023-03-27T16:00:08.466Z,66.00
2023-03-27T16:05:18.583Z,65.20
2023-03-27T16:10:32.660Z,68.00
2023-03-27T16:15:38.068Z,64.60
2023-03-27T16:20:42.457Z,35.80
2023-03-27T16:25:45.424Z,47.20
2023-03-27T16:30:48.894Z,49.60
2023-03-27T16:35:53.118Z,45.00
2023-03-27T16:40:55.871Z,46.40
2023-03-27T16:45:58.873Z,49.00
2023-03-27T16:51:03.107Z,48.40
2023-03-27T16:56:06.525Z,47.00
2023-03-27T17:01:10.349Z,46.60
2023-03-27T17:06:15.120Z,46.60
2023-03-27T17:11:17.891Z,48.00
2023-03-27T17:16:20.789Z,43.80
2023-03-27T17:21:26.159Z,44.40
2023-03-27T17:26:31.959Z,43.20
2023-03-27T17:31:35.359Z,43.60
2023-03-27T17:36:45.207Z,41.80
2023-03-27T17:41:50.856Z,42.80
2023-03-27T17:46:53.789Z,45.00
2023-03-27T17:51:58.147Z,43.20
2023-03-27T17:57:01.267Z,40.60
2023-03-27T18:02:04.161Z,41.00
2023-03-27T18:07:08.495Z,42.00
2023-03-27T18:12:11.723Z,39.60
2023-03-27T18:17:15.769Z,39.60
2023-03-27T18:22:19.897Z,40.20
2023-03-27T18:27:22.643Z,41.20
2023-03-27T18:32:26.170Z,39.60
2023-03-27T18:37:30.292Z,39.00
2023-03-27T18:42:33.032Z,36.00
2023-03-27T18:47:37.025Z,38.60
2023-03-27T18:52:41.630Z,38.60
2023-03-27T18:57:45.231Z,38.60
2023-03-27T19:02:48.842Z,35.40
2023-03-27T19:07:57.559Z,37.00
2023-03-27T19:13:01.841Z,37.60
2023-03-27T19:18:28.310Z,36.40
2023-03-27T19:23:55.672Z,35.60
2023-03-27T19:29:08.749Z,34.20
2023-03-27T19:34:11.690Z,35.20
2023-03-27T19:39:16.186Z,35.80
2023-03-27T19:44:21.068Z,37.40
2023-03-27T19:49:23.819Z,35.20
2023-03-27T19:54:54.969Z,36.00
2023-03-27T19:59:59.562Z,31.20
2023-03-27T20:05:02.375Z,35.20
2023-03-27T20:10:07.337Z,31.60
2023-03-27T20:15:12.435Z,32.60
2023-03-27T20:20:19.737Z,33.00
2023-03-27T20:25:24.079Z,32.60
2023-03-27T20:30:27.521Z,29.60
2023-03-27T20:35:31.836Z,30.80
2023-03-27T20:40:52.772Z,31.40
2023-03-27T20:45:59.950Z,30.60
2023-03-27T20:51:06.897Z,31.20
2023-03-27T20:56:14.135Z,30.40
2023-03-27T21:01:19.424Z,28.80
2023-03-27T21:06:22.332Z,28.40
2023-03-27T21:11:26.599Z,28.20
2023-03-27T21:16:29.788Z,29.60
2023-03-27T21:21:33.157Z,23.00
2023-03-27T21:26:37.369Z,23.60
2023-03-27T21:31:41.192Z,23.50
2023-03-27T21:36:44.126Z,22.00
2023-03-27T21:41:48.315Z,22.00
2023-03-27T21:46:51.116Z,26.75
2023-03-27T21:51:54.035Z,23.25
2023-03-27T21:56:58.145Z,23.50
2023-03-27T22:02:01.642Z,21.75
2023-03-27T22:07:04.517Z,21.75
2023-03-27T22:12:09.256Z,21.75
2023-03-27T22:17:12.032Z,23.75
2023-03-27T22:22:14.795Z,18.25
2023-03-27T22:27:18.894Z,23.50
2023-03-27T22:32:22.289Z,18.50
2023-03-27T22:37:25.134Z,22.00
2023-03-27T22:42:31.791Z,21.75
2023-03-27T22:47:35.475Z,17.25
2023-03-27T22:52:38.280Z,20.00
2023-03-27T22:57:42.478Z,21.00
2023-03-27T23:02:45.280Z,19.50
2023-03-27T23:07:48.050Z,19.00
2023-03-27T23:12:52.262Z,17.00
2023-03-27T23:17:55.402Z,15.75
2023-03-27T23:22:58.594Z,15.50
2023-03-27T23:28:02.664Z,20.00
2023-03-27T23:33:05.459Z,16.00
2023-03-27T23:38:08.163Z,15.00
2023-03-27T23:43:12.341Z,13.75
2023-03-27T23:48:15.298Z,14.50
2023-03-27T23:53:18.088Z,12.75
2023-03-27T23:58:22.204Z,12.50
